sensor_id;sensor_type;location;lat;lon;timestamp;temperature;humidity
7646;DHT22;3864;48.180;14.178;2022-09-09T00:00:18;10.90;99.90
7646;DHT22;3864;48.180;14.178;2022-09-09T00:02:53;10.90;99.90
7646;DHT22;3864;48.180;14.178;2022-09-09T00:05:28;10.80;99.90
7646;DHT22;3864;48.180;14.178;2022-09-09T00:07:59;10.70;99.90
7646;DHT22;3864;48.180;14.178;2022-09-09T00:10:32;10.70;99.90
7646;DHT22;3864;48.180;14.178;2022-09-09T00:13:08;10.60;99.90
7646;DHT22;3864;48.180;14.178;2022-09-09T00:15:50;10.60;99.90
7646;DHT22;3864;48.180;14.178;2022-09-09T00:18:25;10.50;99.90
7646;DHT22;3864;48.180;14.178;2022-09-09T00:20:59;10.40;99.90
7646;DHT22;3864;48.180;14.178;2022-09-09T00:23:33;10.40;99.90
7646;DHT22;3864;48.180;14.178;2022-09-09T00:26:09;10.40;99.90
7646;DHT22;3864;48.180;14.178;2022-09-09T00:28:44;10.40;99.90
7646;DHT22;3864;48.180;14.178;2022-09-09T00:31:20;10.40;99.90
7646;DHT22;3864;48.180;14.178;2022-09-09T00:33:50;10.40;99.90
7646;DHT22;3864;48.180;14.178;2022-09-09T00:36:23;10.30;99.90
7646;DHT22;3864;48.180;14.178;2022-09-09T00:38:56;10.30;99.90
7646;DHT22;3864;48.180;14.178;2022-09-09T00:41:32;10.20;99.90
7646;DHT22;3864;48.180;14.178;2022-09-09T00:44:19;10.20;99.90
7646;DHT22;3864;48.180;14.178;2022-09-09T00:47:12;10.20;99.90
7646;DHT22;3864;48.180;14.178;2022-09-09T00:49:51;10.10;99.90
7646;DHT22;3864;48.180;14.178;2022-09-09T00:52:31;10.10;99.90
7646;DHT22;3864;48.180;14.178;2022-09-09T00:55:08;10.10;99.90
7646;DHT22;3864;48.180;14.178;2022-09-09T01:01:21;10.50;99.90
7646;DHT22;3864;48.180;14.178;2022-09-09T01:04:12;10.50;99.90
7646;DHT22;3864;48.180;14.178;2022-09-09T01:06:43;10.40;99.90
7646;DHT22;3864;48.180;14.178;2022-09-09T01:09:21;10.20;99.90
7646;DHT22;3864;48.180;14.178;2022-09-09T01:11:57;10.10;99.90
7646;DHT22;3864;48.180;14.178;2022-09-09T01:14:38;10.00;99.90
7646;DHT22;3864;48.180;14.178;2022-09-09T01:17:13;10.00;99.90
7646;DHT22;3864;48.180;14.178;2022-09-09T01:20:14;10.00;99.90
7646;DHT22;3864;48.180;14.178;2022-09-09T01:23:16;10.00;99.90
7646;DHT22;3864;48.180;14.178;2022-09-09T01:28:50;10.10;99.90
7646;DHT22;3864;48.180;14.178;2022-09-09T01:31:22;10.20;99.90
7646;DHT22;3864;48.180;14.178;2022-09-09T01:33:50;10.20;99.90
7646;DHT22;3864;48.180;14.178;2022-09-09T01:36:24;10.20;99.90
7646;DHT22;3864;48.180;14.178;2022-09-09T01:38:54;10.30;99.90
7646;DHT22;3864;48.180;14.178;2022-09-09T01:41:21;10.20;99.90
7646;DHT22;3864;48.180;14.178;2022-09-09T01:43:53;10.10;99.90
7646;DHT22;3864;48.180;14.178;2022-09-09T01:46:22;10.10;99.90
7646;DHT22;3864;48.180;14.178;2022-09-09T01:48:50;10.10;99.90
7646;DHT22;3864;48.180;14.178;2022-09-09T01:51:19;10.00;99.90
7646;DHT22;3864;48.180;14.178;2022-09-09T01:53:47;9.90;99.90
7646;DHT22;3864;48.180;14.178;2022-09-09T01:56:25;10.00;99.90
7646;DHT22;3864;48.180;14.178;2022-09-09T01:59:09;10.00;99.90
7646;DHT22;3864;48.180;14.178;2022-09-09T02:01:50;10.00;99.90
7646;DHT22;3864;48.180;14.178;2022-09-09T02:04:34;10.10;99.90
7646;DHT22;3864;48.180;14.178;2022-09-09T02:07:08;10.20;99.90
7646;DHT22;3864;48.180;14.178;2022-09-09T02:09:40;10.30;99.90
7646;DHT22;3864;48.180;14.178;2022-09-09T02:12:14;10.50;99.90
7646;DHT22;3864;48.180;14.178;2022-09-09T02:14:49;10.50;99.90
7646;DHT22;3864;48.180;14.178;2022-09-09T02:17:22;10.50;99.90
7646;DHT22;3864;48.180;14.178;2022-09-09T02:19:56;10.60;99.90
7646;DHT22;3864;48.180;14.178;2022-09-09T02:22:26;10.60;99.90
7646;DHT22;3864;48.180;14.178;2022-09-09T02:24:57;10.70;99.90
7646;DHT22;3864;48.180;14.178;2022-09-09T02:27:26;10.60;99.90
7646;DHT22;3864;48.180;14.178;2022-09-09T02:29:56;10.50;99.90
7646;DHT22;3864;48.180;14.178;2022-09-09T02:32:29;10.40;99.90
7646;DHT22;3864;48.180;14.178;2022-09-09T02:35:06;10.20;99.90
7646;DHT22;3864;48.180;14.178;2022-09-09T02:37:39;10.00;99.90
7646;DHT22;3864;48.180;14.178;2022-09-09T02:40:10;9.80;99.90
7646;DHT22;3864;48.180;14.178;2022-09-09T02:42:39;9.70;99.90
7646;DHT22;3864;48.180;14.178;2022-09-09T02:45:12;9.80;99.90
7646;DHT22;3864;48.180;14.178;2022-09-09T02:47:45;9.70;99.90
7646;DHT22;3864;48.180;14.178;2022-09-09T02:50:19;9.70;99.90
7646;DHT22;3864;48.180;14.178;2022-09-09T02:52:57;9.80;99.90
7646;DHT22;3864;48.180;14.178;2022-09-09T02:55:35;10.00;99.90
7646;DHT22;3864;48.180;14.178;2022-09-09T02:58:06;10.10;99.90
7646;DHT22;3864;48.180;14.178;2022-09-09T03:00:49;10.20;99.90
7646;DHT22;3864;48.180;14.178;2022-09-09T03:03:17;10.20;99.90
7646;DHT22;3864;48.180;14.178;2022-09-09T03:05:45;10.20;99.90
7646;DHT22;3864;48.180;14.178;2022-09-09T03:08:13;10.20;99.90
7646;DHT22;3864;48.180;14.178;2022-09-09T03:10:41;10.30;99.90
7646;DHT22;3864;48.180;14.178;2022-09-09T03:13:08;10.30;99.90
7646;DHT22;3864;48.180;14.178;2022-09-09T03:15:40;10.30;99.90
7646;DHT22;3864;48.180;14.178;2022-09-09T03:18:08;10.30;99.90
7646;DHT22;3864;48.180;14.178;2022-09-09T03:20:35;10.40;99.90
7646;DHT22;3864;48.180;14.178;2022-09-09T03:23:03;10.40;99.90
7646;DHT22;3864;48.180;14.178;2022-09-09T03:25:30;10.40;99.90
7646;DHT22;3864;48.180;14.178;2022-09-09T03:27:59;10.30;99.90
7646;DHT22;3864;48.180;14.178;2022-09-09T03:30:27;10.30;99.90
7646;DHT22;3864;48.180;14.178;2022-09-09T03:32:57;10.30;99.90
7646;DHT22;3864;48.180;14.178;2022-09-09T03:35:24;10.30;99.90
7646;DHT22;3864;48.180;14.178;2022-09-09T03:37:51;10.20;99.90
7646;DHT22;3864;48.180;14.178;2022-09-09T03:40:21;10.20;99.90
7646;DHT22;3864;48.180;14.178;2022-09-09T03:42:48;10.20;99.90
7646;DHT22;3864;48.180;14.178;2022-09-09T03:45:16;10.10;99.90
7646;DHT22;3864;48.180;14.178;2022-09-09T03:47:43;10.10;99.90
7646;DHT22;3864;48.180;14.178;2022-09-09T03:50:13;9.90;99.90
7646;DHT22;3864;48.180;14.178;2022-09-09T03:52:41;9.80;99.90
7646;DHT22;3864;48.180;14.178;2022-09-09T03:55:09;9.80;99.90
7646;DHT22;3864;48.180;14.178;2022-09-09T03:57:36;9.80;99.90
7646;DHT22;3864;48.180;14.178;2022-09-09T04:00:05;9.80;99.90
7646;DHT22;3864;48.180;14.178;2022-09-09T04:02:33;9.80;99.90
7646;DHT22;3864;48.180;14.178;2022-09-09T04:05:01;9.70;99.90
7646;DHT22;3864;48.180;14.178;2022-09-09T04:07:30;9.70;99.90
7646;DHT22;3864;48.180;14.178;2022-09-09T04:09:58;9.70;99.90
7646;DHT22;3864;48.180;14.178;2022-09-09T04:12:25;9.70;99.90
7646;DHT22;3864;48.180;14.178;2022-09-09T04:14:52;9.70;99.90
7646;DHT22;3864;48.180;14.178;2022-09-09T04:17:20;9.60;99.90
7646;DHT22;3864;48.180;14.178;2022-09-09T04:19:47;9.50;99.90
7646;DHT22;3864;48.180;14.178;2022-09-09T04:22:15;9.50;99.90
7646;DHT22;3864;48.180;14.178;2022-09-09T04:24:44;9.50;99.90
7646;DHT22;3864;48.180;14.178;2022-09-09T04:27:11;9.60;99.90
7646;DHT22;3864;48.180;14.178;2022-09-09T04:29:38;9.70;99.90
7646;DHT22;3864;48.180;14.178;2022-09-09T04:32:06;9.90;99.90
7646;DHT22;3864;48.180;14.178;2022-09-09T04:34:33;9.90;99.90
7646;DHT22;3864;48.180;14.178;2022-09-09T04:37:00;10.00;99.90
7646;DHT22;3864;48.180;14.178;2022-09-09T04:39:28;10.10;99.90
7646;DHT22;3864;48.180;14.178;2022-09-09T04:41:57;10.20;99.90
7646;DHT22;3864;48.180;14.178;2022-09-09T04:44:24;10.30;99.90
7646;DHT22;3864;48.180;14.178;2022-09-09T04:46:51;10.30;99.90
7646;DHT22;3864;48.180;14.178;2022-09-09T04:49:19;10.40;99.90
7646;DHT22;3864;48.180;14.178;2022-09-09T04:51:48;10.40;99.90
7646;DHT22;3864;48.180;14.178;2022-09-09T04:54:15;10.50;99.90
7646;DHT22;3864;48.180;14.178;2022-09-09T04:56:43;10.60;99.90
7646;DHT22;3864;48.180;14.178;2022-09-09T04:59:12;10.80;99.90
7646;DHT22;3864;48.180;14.178;2022-09-09T05:01:39;10.90;99.90
7646;DHT22;3864;48.180;14.178;2022-09-09T05:04:07;11.00;99.90
7646;DHT22;3864;48.180;14.178;2022-09-09T05:06:34;11.20;99.90
7646;DHT22;3864;48.180;14.178;2022-09-09T05:09:03;11.40;99.90
7646;DHT22;3864;48.180;14.178;2022-09-09T05:11:32;11.40;99.90
7646;DHT22;3864;48.180;14.178;2022-09-09T05:14:02;11.50;99.90
7646;DHT22;3864;48.180;14.178;2022-09-09T05:16:32;11.60;99.90
7646;DHT22;3864;48.180;14.178;2022-09-09T05:18:59;11.60;99.90
7646;DHT22;3864;48.180;14.178;2022-09-09T05:21:29;11.60;99.90
7646;DHT22;3864;48.180;14.178;2022-09-09T05:23:57;11.60;99.90
7646;DHT22;3864;48.180;14.178;2022-09-09T05:26:26;11.60;99.90
7646;DHT22;3864;48.180;14.178;2022-09-09T05:28:55;11.70;99.90
7646;DHT22;3864;48.180;14.178;2022-09-09T05:31:22;11.70;99.90
7646;DHT22;3864;48.180;14.178;2022-09-09T05:33:53;11.70;99.90
7646;DHT22;3864;48.180;14.178;2022-09-09T05:36:22;11.80;99.90
7646;DHT22;3864;48.180;14.178;2022-09-09T05:38:49;11.80;99.90
7646;DHT22;3864;48.180;14.178;2022-09-09T05:41:19;11.80;99.90
7646;DHT22;3864;48.180;14.178;2022-09-09T05:43:48;11.90;99.90
7646;DHT22;3864;48.180;14.178;2022-09-09T05:46:19;11.90;99.90
7646;DHT22;3864;48.180;14.178;2022-09-09T05:48:49;11.90;99.90
7646;DHT22;3864;48.180;14.178;2022-09-09T05:51:33;12.10;99.90
7646;DHT22;3864;48.180;14.178;2022-09-09T05:54:04;12.30;99.90
7646;DHT22;3864;48.180;14.178;2022-09-09T05:56:31;12.60;99.90
7646;DHT22;3864;48.180;14.178;2022-09-09T05:58:59;12.70;99.90
7646;DHT22;3864;48.180;14.178;2022-09-09T06:01:29;12.60;99.90
7646;DHT22;3864;48.180;14.178;2022-09-09T06:03:57;12.50;99.90
7646;DHT22;3864;48.180;14.178;2022-09-09T06:06:27;12.60;99.90
7646;DHT22;3864;48.180;14.178;2022-09-09T06:08:58;12.70;99.90
7646;DHT22;3864;48.180;14.178;2022-09-09T06:11:27;12.80;99.90
7646;DHT22;3864;48.180;14.178;2022-09-09T06:13:56;12.90;99.90
7646;DHT22;3864;48.180;14.178;2022-09-09T06:16:26;13.00;99.90
7646;DHT22;3864;48.180;14.178;2022-09-09T06:18:54;13.00;99.90
7646;DHT22;3864;48.180;14.178;2022-09-09T06:21:24;13.10;99.90
7646;DHT22;3864;48.180;14.178;2022-09-09T06:23:53;13.10;99.90
7646;DHT22;3864;48.180;14.178;2022-09-09T06:26:22;13.20;99.90
7646;DHT22;3864;48.180;14.178;2022-09-09T06:28:52;13.10;99.90
7646;DHT22;3864;48.180;14.178;2022-09-09T06:31:21;13.20;99.90
7646;DHT22;3864;48.180;14.178;2022-09-09T06:33:50;13.30;99.90
7646;DHT22;3864;48.180;14.178;2022-09-09T06:36:19;13.50;99.90
7646;DHT22;3864;48.180;14.178;2022-09-09T06:38:47;13.60;99.90
7646;DHT22;3864;48.180;14.178;2022-09-09T06:41:17;13.50;99.90
7646;DHT22;3864;48.180;14.178;2022-09-09T06:43:45;13.70;99.90
7646;DHT22;3864;48.180;14.178;2022-09-09T06:46:14;13.80;99.90
7646;DHT22;3864;48.180;14.178;2022-09-09T06:48:43;13.70;99.90
7646;DHT22;3864;48.180;14.178;2022-09-09T06:51:12;13.70;99.90
7646;DHT22;3864;48.180;14.178;2022-09-09T06:53:41;13.80;99.90
7646;DHT22;3864;48.180;14.178;2022-09-09T06:56:22;13.90;99.90
7646;DHT22;3864;48.180;14.178;2022-09-09T06:58:51;14.10;99.90
7646;DHT22;3864;48.180;14.178;2022-09-09T07:01:21;14.30;99.90
7646;DHT22;3864;48.180;14.178;2022-09-09T07:03:51;14.30;99.90
7646;DHT22;3864;48.180;14.178;2022-09-09T07:06:21;14.40;99.90
7646;DHT22;3864;48.180;14.178;2022-09-09T07:08:50;14.50;99.90
7646;DHT22;3864;48.180;14.178;2022-09-09T07:11:21;14.50;99.90
7646;DHT22;3864;48.180;14.178;2022-09-09T07:13:49;14.70;99.90
7646;DHT22;3864;48.180;14.178;2022-09-09T07:16:18;14.80;99.90
7646;DHT22;3864;48.180;14.178;2022-09-09T07:18:46;14.90;99.90
7646;DHT22;3864;48.180;14.178;2022-09-09T07:21:14;15.00;99.90
7646;DHT22;3864;48.180;14.178;2022-09-09T07:23:42;15.30;99.90
7646;DHT22;3864;48.180;14.178;2022-09-09T07:26:11;15.40;99.90
7646;DHT22;3864;48.180;14.178;2022-09-09T07:28:42;15.40;99.90
7646;DHT22;3864;48.180;14.178;2022-09-09T07:31:14;15.40;99.90
7646;DHT22;3864;48.180;14.178;2022-09-09T07:33:43;15.40;99.90
7646;DHT22;3864;48.180;14.178;2022-09-09T07:36:13;15.50;99.90
7646;DHT22;3864;48.180;14.178;2022-09-09T07:38:43;15.60;99.90
7646;DHT22;3864;48.180;14.178;2022-09-09T07:41:13;15.80;99.90
7646;DHT22;3864;48.180;14.178;2022-09-09T07:43:44;16.00;99.90
7646;DHT22;3864;48.180;14.178;2022-09-09T07:46:12;16.10;99.90
7646;DHT22;3864;48.180;14.178;2022-09-09T07:48:44;16.40;99.90
7646;DHT22;3864;48.180;14.178;2022-09-09T07:51:13;16.80;99.90
7646;DHT22;3864;48.180;14.178;2022-09-09T07:53:45;16.90;99.90
7646;DHT22;3864;48.180;14.178;2022-09-09T07:56:14;17.20;99.90
7646;DHT22;3864;48.180;14.178;2022-09-09T07:58:45;17.30;99.90
7646;DHT22;3864;48.180;14.178;2022-09-09T08:01:14;17.30;99.90
7646;DHT22;3864;48.180;14.178;2022-09-09T08:03:43;17.20;99.90
7646;DHT22;3864;48.180;14.178;2022-09-09T08:06:11;17.00;99.90
7646;DHT22;3864;48.180;14.178;2022-09-09T08:08:40;16.80;99.90
7646;DHT22;3864;48.180;14.178;2022-09-09T08:11:12;16.70;99.90
7646;DHT22;3864;48.180;14.178;2022-09-09T08:13:40;16.50;99.90
7646;DHT22;3864;48.180;14.178;2022-09-09T08:16:11;16.40;99.90
7646;DHT22;3864;48.180;14.178;2022-09-09T08:18:40;16.40;99.90
7646;DHT22;3864;48.180;14.178;2022-09-09T08:21:11;16.40;99.90
7646;DHT22;3864;48.180;14.178;2022-09-09T08:23:46;16.40;99.90
7646;DHT22;3864;48.180;14.178;2022-09-09T08:26:26;16.50;99.90
7646;DHT22;3864;48.180;14.178;2022-09-09T08:28:56;16.50;99.90
7646;DHT22;3864;48.180;14.178;2022-09-09T08:31:27;16.50;99.90
7646;DHT22;3864;48.180;14.178;2022-09-09T08:33:55;16.40;99.90
7646;DHT22;3864;48.180;14.178;2022-09-09T08:36:27;16.40;99.90
7646;DHT22;3864;48.180;14.178;2022-09-09T08:38:56;16.40;99.90
7646;DHT22;3864;48.180;14.178;2022-09-09T08:41:39;16.50;99.90
7646;DHT22;3864;48.180;14.178;2022-09-09T08:44:12;16.50;99.90
7646;DHT22;3864;48.180;14.178;2022-09-09T08:46:48;16.50;99.90
7646;DHT22;3864;48.180;14.178;2022-09-09T08:52:13;16.40;99.90
7646;DHT22;3864;48.180;14.178;2022-09-09T08:54:44;16.40;99.90
7646;DHT22;3864;48.180;14.178;2022-09-09T08:57:16;16.40;99.90
7646;DHT22;3864;48.180;14.178;2022-09-09T08:59:46;16.30;99.90
7646;DHT22;3864;48.180;14.178;2022-09-09T09:02:19;16.20;99.90
7646;DHT22;3864;48.180;14.178;2022-09-09T09:04:59;16.20;99.90
7646;DHT22;3864;48.180;14.178;2022-09-09T09:07:38;16.10;99.90
7646;DHT22;3864;48.180;14.178;2022-09-09T09:10:15;16.20;99.90
7646;DHT22;3864;48.180;14.178;2022-09-09T09:12:48;16.20;99.90
7646;DHT22;3864;48.180;14.178;2022-09-09T09:15:20;16.20;99.90
7646;DHT22;3864;48.180;14.178;2022-09-09T09:17:49;16.20;99.90
7646;DHT22;3864;48.180;14.178;2022-09-09T09:20:23;16.10;99.90
7646;DHT22;3864;48.180;14.178;2022-09-09T09:22:57;16.20;99.90
7646;DHT22;3864;48.180;14.178;2022-09-09T09:25:31;16.40;99.90
7646;DHT22;3864;48.180;14.178;2022-09-09T09:28:02;16.40;99.90
7646;DHT22;3864;48.180;14.178;2022-09-09T09:30:36;16.50;99.90
7646;DHT22;3864;48.180;14.178;2022-09-09T09:33:14;16.50;99.90
7646;DHT22;3864;48.180;14.178;2022-09-09T09:35:43;16.50;99.90
7646;DHT22;3864;48.180;14.178;2022-09-09T09:38:17;16.40;99.90
7646;DHT22;3864;48.180;14.178;2022-09-09T09:40:50;16.50;99.90
7646;DHT22;3864;48.180;14.178;2022-09-09T09:43:25;16.60;99.90
7646;DHT22;3864;48.180;14.178;2022-09-09T09:45:53;16.40;99.90
7646;DHT22;3864;48.180;14.178;2022-09-09T09:48:25;16.40;99.90
7646;DHT22;3864;48.180;14.178;2022-09-09T09:50:55;16.50;99.90
7646;DHT22;3864;48.180;14.178;2022-09-09T09:53:25;16.60;99.90
7646;DHT22;3864;48.180;14.178;2022-09-09T09:55:56;16.70;99.90
7646;DHT22;3864;48.180;14.178;2022-09-09T09:58:25;16.60;99.90
7646;DHT22;3864;48.180;14.178;2022-09-09T10:00:54;16.70;99.90
7646;DHT22;3864;48.180;14.178;2022-09-09T10:03:26;16.80;99.90
7646;DHT22;3864;48.180;14.178;2022-09-09T10:05:54;16.90;99.90
7646;DHT22;3864;48.180;14.178;2022-09-09T10:08:24;17.10;99.90
7646;DHT22;3864;48.180;14.178;2022-09-09T10:11:16;17.00;99.90
7646;DHT22;3864;48.180;14.178;2022-09-09T10:13:55;17.20;99.90
7646;DHT22;3864;48.180;14.178;2022-09-09T10:16:41;17.40;99.90
7646;DHT22;3864;48.180;14.178;2022-09-09T10:19:15;17.40;99.90
7646;DHT22;3864;48.180;14.178;2022-09-09T10:22:14;17.30;99.90
7646;DHT22;3864;48.180;14.178;2022-09-09T10:25:09;17.30;99.90
7646;DHT22;3864;48.180;14.178;2022-09-09T10:27:50;17.30;99.90
7646;DHT22;3864;48.180;14.178;2022-09-09T10:30:23;17.30;99.90
7646;DHT22;3864;48.180;14.178;2022-09-09T10:32:57;17.40;99.90
7646;DHT22;3864;48.180;14.178;2022-09-09T10:35:34;17.30;99.90
7646;DHT22;3864;48.180;14.178;2022-09-09T10:38:14;17.30;99.90
7646;DHT22;3864;48.180;14.178;2022-09-09T10:40:57;17.30;99.90
7646;DHT22;3864;48.180;14.178;2022-09-09T10:43:39;17.40;99.90
7646;DHT22;3864;48.180;14.178;2022-09-09T10:46:15;17.50;99.90
7646;DHT22;3864;48.180;14.178;2022-09-09T10:48:58;17.60;99.90
7646;DHT22;3864;48.180;14.178;2022-09-09T10:51:40;17.60;99.90
7646;DHT22;3864;48.180;14.178;2022-09-09T10:54:24;17.60;99.90
7646;DHT22;3864;48.180;14.178;2022-09-09T10:56:56;17.60;99.90
7646;DHT22;3864;48.180;14.178;2022-09-09T10:59:28;17.50;99.90
7646;DHT22;3864;48.180;14.178;2022-09-09T11:01:59;17.40;99.90
7646;DHT22;3864;48.180;14.178;2022-09-09T11:04:33;17.40;99.90
7646;DHT22;3864;48.180;14.178;2022-09-09T11:07:07;17.50;99.90
7646;DHT22;3864;48.180;14.178;2022-09-09T11:09:39;17.50;99.90
7646;DHT22;3864;48.180;14.178;2022-09-09T11:12:13;17.30;99.90
7646;DHT22;3864;48.180;14.178;2022-09-09T11:14:44;17.30;99.90
7646;DHT22;3864;48.180;14.178;2022-09-09T11:17:15;17.30;99.90
7646;DHT22;3864;48.180;14.178;2022-09-09T11:19:44;17.40;99.90
7646;DHT22;3864;48.180;14.178;2022-09-09T11:22:20;17.40;99.90
7646;DHT22;3864;48.180;14.178;2022-09-09T11:24:51;17.60;99.90
7646;DHT22;3864;48.180;14.178;2022-09-09T11:27:23;17.60;99.90
7646;DHT22;3864;48.180;14.178;2022-09-09T11:30:11;17.40;99.90
7646;DHT22;3864;48.180;14.178;2022-09-09T11:33:08;17.50;99.90
7646;DHT22;3864;48.180;14.178;2022-09-09T11:35:47;17.70;99.90
7646;DHT22;3864;48.180;14.178;2022-09-09T11:38:27;17.80;99.90
7646;DHT22;3864;48.180;14.178;2022-09-09T11:41:09;17.90;99.90
7646;DHT22;3864;48.180;14.178;2022-09-09T11:43:40;18.00;99.90
7646;DHT22;3864;48.180;14.178;2022-09-09T11:46:09;18.20;99.90
7646;DHT22;3864;48.180;14.178;2022-09-09T11:48:39;18.40;99.90
7646;DHT22;3864;48.180;14.178;2022-09-09T11:51:11;18.50;99.90
7646;DHT22;3864;48.180;14.178;2022-09-09T11:53:52;18.50;99.90
7646;DHT22;3864;48.180;14.178;2022-09-09T11:56:28;18.40;99.90
7646;DHT22;3864;48.180;14.178;2022-09-09T11:59:01;18.20;99.90
7646;DHT22;3864;48.180;14.178;2022-09-09T12:01:34;18.10;99.90
7646;DHT22;3864;48.180;14.178;2022-09-09T12:04:20;18.00;99.90
7646;DHT22;3864;48.180;14.178;2022-09-09T12:06:52;17.70;99.90
7646;DHT22;3864;48.180;14.178;2022-09-09T12:09:29;17.60;99.90
7646;DHT22;3864;48.180;14.178;2022-09-09T12:15:21;17.30;99.90
7646;DHT22;3864;48.180;14.178;2022-09-09T12:17:52;17.20;99.90
7646;DHT22;3864;48.180;14.178;2022-09-09T12:20:22;17.30;99.90
7646;DHT22;3864;48.180;14.178;2022-09-09T12:23:03;17.40;99.90
7646;DHT22;3864;48.180;14.178;2022-09-09T12:25:48;17.60;99.90
7646;DHT22;3864;48.180;14.178;2022-09-09T12:28:18;17.80;99.90
7646;DHT22;3864;48.180;14.178;2022-09-09T12:30:52;18.00;99.90
7646;DHT22;3864;48.180;14.178;2022-09-09T12:33:22;18.30;99.90
7646;DHT22;3864;48.180;14.178;2022-09-09T12:35:55;18.40;99.90
7646;DHT22;3864;48.180;14.178;2022-09-09T12:38:30;18.70;99.90
7646;DHT22;3864;48.180;14.178;2022-09-09T12:41:00;18.80;99.90
7646;DHT22;3864;48.180;14.178;2022-09-09T12:43:29;18.90;99.90
7646;DHT22;3864;48.180;14.178;2022-09-09T12:45:58;18.90;99.90
7646;DHT22;3864;48.180;14.178;2022-09-09T12:48:34;18.90;99.90
7646;DHT22;3864;48.180;14.178;2022-09-09T12:51:02;18.90;99.90
7646;DHT22;3864;48.180;14.178;2022-09-09T12:53:33;19.10;99.90
7646;DHT22;3864;48.180;14.178;2022-09-09T12:56:05;19.20;99.90
7646;DHT22;3864;48.180;14.178;2022-09-09T12:58:35;19.30;99.90
7646;DHT22;3864;48.180;14.178;2022-09-09T13:01:05;19.30;99.90
7646;DHT22;3864;48.180;14.178;2022-09-09T13:03:42;19.20;99.90
7646;DHT22;3864;48.180;14.178;2022-09-09T13:06:18;19.00;99.90
7646;DHT22;3864;48.180;14.178;2022-09-09T13:08:48;18.80;99.90
7646;DHT22;3864;48.180;14.178;2022-09-09T13:11:20;18.60;99.90
7646;DHT22;3864;48.180;14.178;2022-09-09T13:13:53;18.40;99.90
7646;DHT22;3864;48.180;14.178;2022-09-09T13:16:25;18.30;99.90
7646;DHT22;3864;48.180;14.178;2022-09-09T13:18:56;18.30;99.90
7646;DHT22;3864;48.180;14.178;2022-09-09T13:21:32;18.30;99.90
7646;DHT22;3864;48.180;14.178;2022-09-09T13:24:01;18.30;99.90
7646;DHT22;3864;48.180;14.178;2022-09-09T13:26:32;18.20;99.90
7646;DHT22;3864;48.180;14.178;2022-09-09T13:29:17;18.10;99.90
7646;DHT22;3864;48.180;14.178;2022-09-09T13:32:04;18.00;99.90
7646;DHT22;3864;48.180;14.178;2022-09-09T13:34:36;18.00;99.90
7646;DHT22;3864;48.180;14.178;2022-09-09T13:37:05;18.00;99.90
7646;DHT22;3864;48.180;14.178;2022-09-09T13:39:35;18.10;99.90
7646;DHT22;3864;48.180;14.178;2022-09-09T13:42:19;18.20;99.90
7646;DHT22;3864;48.180;14.178;2022-09-09T13:44:49;18.30;99.90
7646;DHT22;3864;48.180;14.178;2022-09-09T13:47:21;18.40;99.90
7646;DHT22;3864;48.180;14.178;2022-09-09T13:49:52;18.30;99.90
7646;DHT22;3864;48.180;14.178;2022-09-09T13:52:19;18.20;99.90
7646;DHT22;3864;48.180;14.178;2022-09-09T13:54:49;18.10;99.90
7646;DHT22;3864;48.180;14.178;2022-09-09T13:57:21;18.10;99.90
7646;DHT22;3864;48.180;14.178;2022-09-09T13:59:51;18.00;99.90
7646;DHT22;3864;48.180;14.178;2022-09-09T14:02:20;17.90;99.90
7646;DHT22;3864;48.180;14.178;2022-09-09T14:04:49;17.80;99.90
7646;DHT22;3864;48.180;14.178;2022-09-09T14:07:21;17.70;99.90
7646;DHT22;3864;48.180;14.178;2022-09-09T14:09:49;17.60;99.90
7646;DHT22;3864;48.180;14.178;2022-09-09T14:12:19;17.50;99.90
7646;DHT22;3864;48.180;14.178;2022-09-09T14:14:47;17.50;99.90
7646;DHT22;3864;48.180;14.178;2022-09-09T14:17:15;17.50;99.90
7646;DHT22;3864;48.180;14.178;2022-09-09T14:19:43;17.50;99.90
7646;DHT22;3864;48.180;14.178;2022-09-09T14:22:11;17.50;99.90
7646;DHT22;3864;48.180;14.178;2022-09-09T14:24:39;17.60;99.90
7646;DHT22;3864;48.180;14.178;2022-09-09T14:27:07;17.60;99.90
7646;DHT22;3864;48.180;14.178;2022-09-09T14:29:36;17.70;99.90
7646;DHT22;3864;48.180;14.178;2022-09-09T14:32:04;17.70;99.90
7646;DHT22;3864;48.180;14.178;2022-09-09T14:34:32;17.80;99.90
7646;DHT22;3864;48.180;14.178;2022-09-09T14:37:01;17.80;99.90
7646;DHT22;3864;48.180;14.178;2022-09-09T14:39:29;17.80;99.90
7646;DHT22;3864;48.180;14.178;2022-09-09T14:42:01;17.80;99.90
7646;DHT22;3864;48.180;14.178;2022-09-09T14:44:30;17.70;99.90
7646;DHT22;3864;48.180;14.178;2022-09-09T14:47:01;17.70;99.90
7646;DHT22;3864;48.180;14.178;2022-09-09T14:49:29;17.60;99.90
7646;DHT22;3864;48.180;14.178;2022-09-09T14:51:57;17.60;99.90
7646;DHT22;3864;48.180;14.178;2022-09-09T14:54:25;17.60;99.90
7646;DHT22;3864;48.180;14.178;2022-09-09T14:56:54;17.70;99.90
7646;DHT22;3864;48.180;14.178;2022-09-09T14:59:22;17.70;99.90
7646;DHT22;3864;48.180;14.178;2022-09-09T15:01:50;17.70;99.90
7646;DHT22;3864;48.180;14.178;2022-09-09T15:04:20;17.80;99.90
7646;DHT22;3864;48.180;14.178;2022-09-09T15:06:47;17.80;99.90
7646;DHT22;3864;48.180;14.178;2022-09-09T15:09:17;17.90;99.90
7646;DHT22;3864;48.180;14.178;2022-09-09T15:11:45;17.90;99.90
7646;DHT22;3864;48.180;14.178;2022-09-09T15:14:12;17.80;99.90
7646;DHT22;3864;48.180;14.178;2022-09-09T15:16:40;17.70;99.90
7646;DHT22;3864;48.180;14.178;2022-09-09T15:19:07;17.70;99.90
7646;DHT22;3864;48.180;14.178;2022-09-09T15:21:38;17.60;99.90
7646;DHT22;3864;48.180;14.178;2022-09-09T15:24:05;17.50;99.90
7646;DHT22;3864;48.180;14.178;2022-09-09T15:26:34;17.30;99.90
7646;DHT22;3864;48.180;14.178;2022-09-09T15:29:04;17.20;99.90
7646;DHT22;3864;48.180;14.178;2022-09-09T15:31:31;17.10;99.90
7646;DHT22;3864;48.180;14.178;2022-09-09T15:34:00;17.00;99.90
7646;DHT22;3864;48.180;14.178;2022-09-09T15:36:29;17.00;99.90
7646;DHT22;3864;48.180;14.178;2022-09-09T15:39:00;16.90;99.90
7646;DHT22;3864;48.180;14.178;2022-09-09T15:41:28;16.90;99.90
7646;DHT22;3864;48.180;14.178;2022-09-09T15:43:57;16.80;99.90
7646;DHT22;3864;48.180;14.178;2022-09-09T15:46:28;16.80;99.90
7646;DHT22;3864;48.180;14.178;2022-09-09T15:48:57;16.70;99.90
7646;DHT22;3864;48.180;14.178;2022-09-09T15:51:25;16.60;99.90
7646;DHT22;3864;48.180;14.178;2022-09-09T15:53:59;16.60;99.90
7646;DHT22;3864;48.180;14.178;2022-09-09T15:56:27;16.50;99.90
7646;DHT22;3864;48.180;14.178;2022-09-09T15:58:56;16.50;99.90
7646;DHT22;3864;48.180;14.178;2022-09-09T16:01:25;16.40;99.90
7646;DHT22;3864;48.180;14.178;2022-09-09T16:03:53;16.40;99.90
7646;DHT22;3864;48.180;14.178;2022-09-09T16:06:22;16.30;99.90
7646;DHT22;3864;48.180;14.178;2022-09-09T16:08:51;16.30;99.90
7646;DHT22;3864;48.180;14.178;2022-09-09T16:11:22;16.20;99.90
7646;DHT22;3864;48.180;14.178;2022-09-09T16:13:51;16.20;99.90
7646;DHT22;3864;48.180;14.178;2022-09-09T16:16:21;16.20;99.90
7646;DHT22;3864;48.180;14.178;2022-09-09T16:18:51;16.10;99.90
7646;DHT22;3864;48.180;14.178;2022-09-09T16:21:20;16.00;99.90
7646;DHT22;3864;48.180;14.178;2022-09-09T16:23:49;16.00;99.90
7646;DHT22;3864;48.180;14.178;2022-09-09T16:26:18;15.90;99.90
7646;DHT22;3864;48.180;14.178;2022-09-09T16:28:47;15.90;99.90